Weather at Cincinnati Municipal Airport Lunken Field

Public forecast

Using degrees Fahrenheit for public forecast. Weather courtesy of forecast.io.

Current aviation weather report (METAR) for Cincinnati Municipal Airport Lunken Field

Retrieved 2021/05/11 17:53 UTC (2 hours ago):

KLUK 111753Z VRB05KT 10SM CLR 14/02 A3028 RMK AO2 SLP254 T01440017 10150 20083 50001

Aviation forecast (TAF) for Cincinnati Municipal Airport Lunken Field

Retrieved 2021/05/11 18:27 UTC (1 hour ago):

TAF KLUK 111725Z 1118/1218 01008KT P6SM SCT060 FM120200 02002KT P6SM SCT250 FM121400 05006KT P6SM SKC